Time;durP1;ratioP1;P1;durP2;ratioP2;P2;SDS_P1;SDS_P2;PMS_P1;PMS_P2;Temp;Humidity;BMP_temperature;BMP_pressure;BME280_temperature;BME280_humidity;BME280_pressure;Samples;Min_cycle;Max_cycle;Signal;HPM_P1;HPM_P2
2023/01/16 00:02:04;;;;;;;15.32;3.42;;;4.60;99.90;;;;;;5052520;28;20045;-54
2023/01/16 00:04:33;;;;;;;14.18;2.83;;;4.60;99.90;;;;;;5052761;28;20045;-55
2023/01/16 00:07:00;;;;;;;13.65;3.05;;;4.60;99.90;;;;;;5053342;28;20044;-54
2023/01/16 00:09:27;;;;;;;11.25;3.33;;;4.70;99.90;;;;;;5053350;28;20060;-53
2023/01/16 00:11:54;;;;;;;12.13;3.10;;;4.70;99.90;;;;;;5056185;28;20057;-53
2023/01/16 00:14:20;;;;;;;9.18;2.95;;;4.70;99.90;;;;;;5056341;28;20049;-54
2023/01/16 00:16:47;;;;;;;13.57;3.47;;;4.70;99.90;;;;;;5056390;28;20064;-53
2023/01/16 00:19:14;;;;;;;16.63;4.07;;;4.70;99.90;;;;;;5056800;28;20037;-56
2023/01/16 00:21:41;;;;;;;14.32;3.00;;;4.70;99.90;;;;;;5056076;28;20120;-52
2023/01/16 00:24:08;;;;;;;22.35;3.63;;;4.70;99.90;;;;;;5056375;28;20115;-57
2023/01/16 00:26:35;;;;;;;17.00;3.97;;;4.70;99.90;;;;;;5056281;28;20120;-56
2023/01/16 00:29:02;;;;;;;15.60;3.20;;;4.60;99.90;;;;;;5054929;28;20075;-54
2023/01/16 00:31:29;;;;;;;18.90;3.42;;;4.60;99.90;;;;;;5056463;28;20049;-58
2023/01/16 00:33:56;;;;;;;18.55;3.67;;;4.70;99.90;;;;;;5056322;28;20049;-55
2023/01/16 00:36:23;;;;;;;18.50;4.13;;;4.60;99.90;;;;;;5055706;28;20091;-51
2023/01/16 00:38:49;;;;;;;14.48;3.35;;;4.70;99.90;;;;;;5056240;28;20056;-55
2023/01/16 00:41:16;;;;;;;15.25;3.40;;;4.70;99.90;;;;;;5054482;28;20500;-52
2023/01/16 00:43:43;;;;;;;14.27;2.83;;;4.70;99.90;;;;;;5056353;28;20075;-53
2023/01/16 00:46:10;;;;;;;11.45;3.10;;;4.80;99.90;;;;;;5055900;28;20445;-52
2023/01/16 00:48:36;;;;;;;14.48;2.90;;;4.80;99.90;;;;;;5055831;28;20091;-57
2023/01/16 00:51:03;;;;;;;11.90;2.90;;;4.80;99.90;;;;;;5055879;28;20451;-55
2023/01/16 00:53:30;;;;;;;13.43;2.85;;;4.80;99.90;;;;;;5055944;28;20476;-53
2023/01/16 00:55:57;;;;;;;13.00;2.83;;;4.80;99.90;;;;;;5055655;28;20043;-56
2023/01/16 00:58:24;;;;;;;10.65;2.97;;;4.80;99.90;;;;;;5055738;28;20041;-56
2023/01/16 01:00:50;;;;;;;16.88;3.05;;;4.80;99.90;;;;;;5055632;28;20045;-55
2023/01/16 01:03:17;;;;;;;13.07;3.15;;;4.80;99.90;;;;;;5054370;28;20044;-57
2023/01/16 01:05:44;;;;;;;15.70;2.83;;;4.80;99.90;;;;;;5055627;28;20434;-54
2023/01/16 01:08:11;;;;;;;19.45;3.67;;;4.80;99.90;;;;;;5055443;28;20061;-55
2023/01/16 01:10:38;;;;;;;17.88;3.40;;;4.80;99.90;;;;;;5054813;28;20068;-53
2023/01/16 01:13:05;;;;;;;17.00;3.10;;;4.80;99.90;;;;;;5055143;28;20073;-56
2023/01/16 01:15:32;;;;;;;13.90;3.50;;;4.80;99.90;;;;;;5055075;28;20103;-54
2023/01/16 01:17:59;;;;;;;13.43;3.05;;;4.80;99.90;;;;;;5055052;28;20059;-48
2023/01/16 01:20:28;;;;;;;13.82;3.10;;;4.80;99.90;;;;;;5054722;28;20412;-53
2023/01/16 01:22:55;;;;;;;16.38;3.00;;;4.80;99.90;;;;;;5054304;28;20045;-53
2023/01/16 01:25:22;;;;;;;15.20;3.00;;;4.80;99.90;;;;;;5055099;28;20064;-56
2023/01/16 01:27:48;;;;;;;13.68;3.17;;;4.80;99.90;;;;;;5055044;28;20099;-53
2023/01/16 01:30:15;;;;;;;12.95;2.80;;;4.80;99.90;;;;;;5055407;28;20037;-55
2023/01/16 01:32:42;;;;;;;14.32;3.20;;;4.80;99.90;;;;;;5055005;28;20049;-52
2023/01/16 01:35:09;;;;;;;12.02;2.70;;;4.80;99.90;;;;;;5055010;28;20045;-52
2023/01/16 01:37:35;;;;;;;15.70;3.40;;;4.80;99.90;;;;;;5054741;28;20439;-57
2023/01/16 01:40:04;;;;;;;15.57;3.25;;;4.70;99.90;;;;;;5054794;28;20051;-51
2023/01/16 01:42:43;;;;;;;10.85;3.20;;;4.70;99.90;;;;;;5054710;28;20048;-53
2023/01/16 01:45:09;;;;;;;12.68;3.22;;;4.70;99.90;;;;;;5055048;28;20045;-54
2023/01/16 01:47:36;;;;;;;16.02;3.67;;;4.70;99.90;;;;;;5054624;28;20056;-51
2023/01/16 01:50:03;;;;;;;13.57;3.38;;;4.60;99.90;;;;;;5054806;28;20045;-55
2023/01/16 01:52:29;;;;;;;13.55;3.35;;;4.70;99.90;;;;;;5054708;28;20075;-55
2023/01/16 01:54:56;;;;;;;16.05;3.20;;;4.70;99.90;;;;;;5054773;28;20455;-54
2023/01/16 01:57:23;;;;;;;13.38;3.10;;;4.60;99.90;;;;;;5054530;28;20134;-51
2023/01/16 01:59:50;;;;;;;15.05;3.20;;;4.60;99.90;;;;;;5054430;28;20377;-51
2023/01/16 02:02:19;;;;;;;12.20;3.75;;;4.60;99.90;;;;;;5054431;28;20041;-55
2023/01/16 02:04:45;;;;;;;17.98;3.38;;;4.60;99.90;;;;;;5054569;28;20072;-53
2023/01/16 02:07:12;;;;;;;16.75;3.35;;;4.60;99.90;;;;;;5054637;28;20060;-54
2023/01/16 02:09:39;;;;;;;12.75;2.88;;;4.60;99.90;;;;;;5053201;28;20041;-56
2023/01/16 02:12:06;;;;;;;13.13;3.42;;;4.60;99.90;;;;;;5053657;28;20049;-53
2023/01/16 02:14:33;;;;;;;9.48;2.60;;;4.60;99.90;;;;;;5054237;28;20115;-55
2023/01/16 02:19:45;;;;;;;12.63;3.53;;;4.70;99.90;;;;;;5053819;28;20507;-51
2023/01/16 02:22:12;;;;;;;14.50;3.03;;;4.70;99.90;;;;;;5054442;28;20140;-55
2023/01/16 02:24:39;;;;;;;12.80;2.90;;;4.70;99.90;;;;;;5053705;28;20041;-54
2023/01/16 02:27:05;;;;;;;12.88;2.65;;;4.70;99.90;;;;;;5053635;28;20037;-55
2023/01/16 02:29:32;;;;;;;8.70;2.22;;;4.70;99.90;;;;;;5053863;28;20041;-53
2023/01/16 02:31:59;;;;;;;10.73;2.70;;;4.70;99.90;;;;;;5052811;28;20048;-55
2023/01/16 02:34:26;;;;;;;8.93;1.88;;;4.80;99.90;;;;;;5053190;28;20447;-57
2023/01/16 02:36:52;;;;;;;7.22;1.52;;;4.80;99.90;;;;;;5052282;28;20044;-50
2023/01/16 02:39:19;;;;;;;4.70;1.33;;;4.80;99.90;;;;;;5053839;28;20041;-53
2023/01/16 02:41:46;;;;;;;4.55;1.15;;;4.80;99.90;;;;;;5054113;28;20384;-53
2023/01/16 02:44:12;;;;;;;4.53;0.90;;;4.80;99.90;;;;;;5054091;28;20037;-54
2023/01/16 02:46:39;;;;;;;3.97;0.77;;;4.80;99.90;;;;;;5053354;28;20076;-57
2023/01/16 02:49:06;;;;;;;3.45;0.82;;;4.80;99.90;;;;;;5053693;28;20041;-54
2023/01/16 02:51:33;;;;;;;2.67;0.80;;;4.80;99.90;;;;;;5053732;28;20128;-51
2023/01/16 02:53:59;;;;;;;2.28;0.88;;;4.80;99.90;;;;;;5053751;28;20095;-54
2023/01/16 02:56:26;;;;;;;3.08;0.80;;;4.80;99.90;;;;;;5053482;28;20041;-52
2023/01/16 02:58:53;;;;;;;2.95;0.60;;;4.70;99.90;;;;;;5053650;28;20045;-53
2023/01/16 03:01:20;;;;;;;3.42;1.45;;;4.60;99.90;;;;;;5053150;28;20045;-52
2023/01/16 03:03:46;;;;;;;1.90;0.52;;;4.60;99.90;;;;;;5053279;28;20040;-53
2023/01/16 03:06:13;;;;;;;1.27;0.47;;;4.50;99.90;;;;;;5053421;28;20040;-49
2023/01/16 03:08:40;;;;;;;1.38;0.60;;;4.40;99.90;;;;;;5053324;28;20037;-47
2023/01/16 03:11:07;;;;;;;1.25;0.35;;;4.40;99.90;;;;;;5052839;28;20102;-48
2023/01/16 03:13:33;;;;;;;1.00;0.30;;;4.30;99.90;;;;;;5052191;28;20435;-50
2023/01/16 03:16:00;;;;;;;1.10;0.35;;;4.30;99.90;;;;;;5053566;28;20098;-52
2023/01/16 03:18:27;;;;;;;2.35;0.30;;;4.20;99.90;;;;;;5053722;28;20045;-49
2023/01/16 03:20:54;;;;;;;0.68;0.30;;;4.10;99.90;;;;;;5053016;28;20082;-57
2023/01/16 03:23:20;;;;;;;0.52;0.20;;;4.10;99.90;;;;;;5053107;28;20511;-52
2023/01/16 03:25:47;;;;;;;0.30;0.30;;;4.10;99.90;;;;;;5053579;28;20120;-54
2023/01/16 03:28:14;;;;;;;0.75;0.30;;;4.00;99.90;;;;;;5053139;28;20472;-56
2023/01/16 03:30:41;;;;;;;0.85;0.28;;;4.00;99.90;;;;;;5053383;28;20116;-54
2023/01/16 03:33:07;;;;;;;0.57;0.30;;;4.10;99.90;;;;;;5053405;28;20041;-53
2023/01/16 03:35:34;;;;;;;0.77;0.32;;;4.10;99.90;;;;;;5053178;28;20053;-49
2023/01/16 03:38:01;;;;;;;0.73;0.30;;;4.10;99.90;;;;;;5053242;28;20049;-52
2023/01/16 03:40:28;;;;;;;0.50;0.30;;;4.10;99.90;;;;;;5051765;28;20045;-52
2023/01/16 03:42:54;;;;;;;0.38;0.20;;;4.10;99.90;;;;;;5052914;28;20404;-54
2023/01/16 03:45:21;;;;;;;0.47;0.30;;;4.10;99.90;;;;;;5054938;28;20037;-55
2023/01/16 03:47:48;;;;;;;0.98;0.30;;;4.00;99.90;;;;;;5056648;28;20052;-57
2023/01/16 03:50:15;;;;;;;0.25;0.20;;;4.00;99.90;;;;;;5057274;28;20041;-55
2023/01/16 03:52:42;;;;;;;1.10;0.30;;;3.80;99.90;;;;;;5056572;28;20049;-50
2023/01/16 03:55:08;;;;;;;0.55;0.30;;;3.70;99.90;;;;;;5055214;28;20045;-52
2023/01/16 03:57:35;;;;;;;0.77;0.20;;;3.70;99.90;;;;;;5056667;28;20045;-50
2023/01/16 04:00:02;;;;;;;0.30;0.20;;;3.60;99.90;;;;;;5056724;28;20041;-53
2023/01/16 04:02:38;;;;;;;0.90;0.25;;;3.50;99.90;;;;;;5056766;28;20091;-52
2023/01/16 04:05:04;;;;;;;0.28;0.20;;;3.40;99.90;;;;;;5056649;28;20052;-54
2023/01/16 04:07:34;;;;;;;0.98;0.25;;;3.40;99.90;;;;;;5056518;28;20045;-55
2023/01/16 04:10:01;;;;;;;0.85;0.40;;;3.40;99.90;;;;;;5057127;28;20048;-53
2023/01/16 04:12:28;;;;;;;1.58;0.30;;;3.30;99.90;;;;;;5056404;28;20419;-52
2023/01/16 04:14:55;;;;;;;0.95;0.30;;;3.20;99.90;;;;;;5056721;28;20044;-56
2023/01/16 04:17:22;;;;;;;0.38;0.38;;;3.20;99.90;;;;;;5056285;28;20045;-53
2023/01/16 04:19:48;;;;;;;2.08;0.30;;;3.10;99.90;;;;;;5056487;28;20060;-56
2023/01/16 04:22:15;;;;;;;0.40;0.20;;;3.00;99.90;;;;;;5056229;28;20037;-54
2023/01/16 04:24:42;;;;;;;0.50;0.28;;;3.00;99.90;;;;;;5056350;28;20098;-54
2023/01/16 04:27:08;;;;;;;1.27;0.30;;;2.90;99.90;;;;;;5056392;28;20068;-56
2023/01/16 04:29:35;;;;;;;0.30;0.30;;;2.90;99.90;;;;;;5056331;28;20144;-50
2023/01/16 04:32:02;;;;;;;0.82;0.35;;;2.80;99.90;;;;;;5055750;28;20041;-58
2023/01/16 04:34:29;;;;;;;0.55;0.30;;;2.80;99.90;;;;;;5056155;28;20395;-54
2023/01/16 04:36:56;;;;;;;0.30;0.20;;;2.70;99.90;;;;;;5056127;28;20044;-57
2023/01/16 04:39:22;;;;;;;0.63;0.20;;;2.70;99.90;;;;;;5056083;28;20044;-57
2023/01/16 04:41:50;;;;;;;0.30;0.20;;;2.60;99.90;;;;;;5055528;28;20041;-58
2023/01/16 04:44:17;;;;;;;1.40;0.50;;;2.60;99.90;;;;;;5056068;28;20049;-53
2023/01/16 04:46:44;;;;;;;2.08;0.47;;;2.60;99.90;;;;;;5056044;28;20040;-55
2023/01/16 04:49:10;;;;;;;0.47;0.30;;;2.50;99.90;;;;;;5055950;28;20063;-52
2023/01/16 04:51:38;;;;;;;1.05;0.35;;;2.50;99.90;;;;;;5055751;28;20065;-51
2023/01/16 04:54:05;;;;;;;3.83;0.52;;;2.40;99.90;;;;;;5055651;28;20467;-52
2023/01/16 04:56:31;;;;;;;0.75;0.45;;;2.40;99.90;;;;;;5055409;28;20494;-50
2023/01/16 04:58:58;;;;;;;1.33;0.47;;;2.50;99.90;;;;;;5055541;28;20091;-56
2023/01/16 05:01:25;;;;;;;1.08;0.50;;;2.40;99.90;;;;;;5055670;28;20041;-56
2023/01/16 05:03:52;;;;;;;1.50;0.43;;;2.40;99.90;;;;;;5055342;28;20045;-55
2023/01/16 05:06:19;;;;;;;1.30;0.57;;;2.40;99.90;;;;;;5055259;28;20041;-49
2023/01/16 05:08:45;;;;;;;2.03;0.80;;;2.40;99.90;;;;;;5055527;28;20033;-55
2023/01/16 05:11:12;;;;;;;1.17;0.50;;;2.30;99.90;;;;;;5055299;28;20128;-49
2023/01/16 05:13:39;;;;;;;1.60;0.63;;;2.30;99.90;;;;;;5055727;28;20040;-53
2023/01/16 05:16:06;;;;;;;2.38;0.60;;;2.30;99.90;;;;;;5055540;28;20370;-50
2023/01/16 05:18:32;;;;;;;1.63;0.57;;;2.20;99.90;;;;;;5055156;28;20063;-54
2023/01/16 05:21:00;;;;;;;1.23;0.50;;;2.10;99.90;;;;;;5053679;28;20455;-55
2023/01/16 05:23:26;;;;;;;0.60;0.50;;;2.00;99.90;;;;;;5054860;28;20455;-55
2023/01/16 05:25:53;;;;;;;0.73;0.43;;;2.00;99.90;;;;;;5055025;28;20099;-53
2023/01/16 05:28:20;;;;;;;1.25;0.50;;;1.90;99.90;;;;;;5054874;28;20053;-53
2023/01/16 05:30:47;;;;;;;2.45;0.60;;;1.90;99.90;;;;;;5054965;28;20106;-55
2023/01/16 05:33:14;;;;;;;1.15;0.40;;;1.80;99.90;;;;;;5055168;28;20492;-57
2023/01/16 05:35:40;;;;;;;1.20;0.60;;;1.80;99.90;;;;;;5054755;28;20083;-53
2023/01/16 05:38:07;;;;;;;1.40;0.70;;;1.80;99.90;;;;;;5054896;28;20048;-51
2023/01/16 05:40:34;;;;;;;1.10;0.52;;;1.70;99.90;;;;;;5054963;28;20051;-55
2023/01/16 05:43:01;;;;;;;2.92;0.90;;;1.70;99.90;;;;;;5054519;28;20049;-55
2023/01/16 05:45:27;;;;;;;1.30;0.80;;;1.70;99.90;;;;;;5055196;28;20040;-51
2023/01/16 05:47:56;;;;;;;1.40;0.60;;;1.70;99.90;;;;;;5053499;28;20049;-52
2023/01/16 05:50:22;;;;;;;1.77;0.90;;;1.70;99.90;;;;;;5054764;28;20103;-55
2023/01/16 05:52:49;;;;;;;1.02;0.60;;;1.70;99.90;;;;;;5054208;28;20036;-53
2023/01/16 05:55:16;;;;;;;3.28;0.60;;;1.80;99.90;;;;;;5054686;28;20045;-55
2023/01/16 05:57:42;;;;;;;2.55;0.63;;;1.80;99.90;;;;;;5054522;28;20484;-52
2023/01/16 06:00:09;;;;;;;1.63;0.68;;;1.80;99.90;;;;;;5054576;28;20091;-58
2023/01/16 06:02:36;;;;;;;2.10;0.60;;;1.90;99.90;;;;;;5053927;28;20132;-56
2023/01/16 06:05:03;;;;;;;1.60;1.00;;;2.00;99.90;;;;;;5054141;28;20477;-54
2023/01/16 06:07:30;;;;;;;1.40;0.80;;;2.00;99.90;;;;;;5054060;28;20041;-55
2023/01/16 06:09:56;;;;;;;2.70;0.70;;;2.10;99.90;;;;;;5052945;28;20037;-56
2023/01/16 06:12:23;;;;;;;1.58;0.60;;;2.20;99.90;;;;;;5053998;28;20081;-54
2023/01/16 06:14:50;;;;;;;0.65;0.40;;;2.30;99.90;;;;;;5053700;28;20041;-51
2023/01/16 06:17:18;;;;;;;1.15;0.30;;;2.30;99.90;;;;;;5053813;28;20045;-50
2023/01/16 06:19:45;;;;;;;0.63;0.35;;;2.40;99.90;;;;;;5053815;28;20037;-53
2023/01/16 06:22:11;;;;;;;1.92;0.40;;;2.50;99.90;;;;;;5053956;28;20073;-53
2023/01/16 06:24:38;;;;;;;1.40;0.40;;;2.50;99.90;;;;;;5053777;28;20041;-57
2023/01/16 06:27:05;;;;;;;0.40;0.30;;;2.50;99.90;;;;;;5054043;28;20037;-56
2023/01/16 06:29:32;;;;;;;1.05;0.40;;;2.50;99.90;;;;;;5054395;28;20044;-58
2023/01/16 06:31:58;;;;;;;0.57;0.30;;;2.50;99.90;;;;;;5053998;28;20400;-57
2023/01/16 06:34:25;;;;;;;0.93;0.40;;;2.50;99.90;;;;;;5053975;28;20063;-59
2023/01/16 06:36:52;;;;;;;0.40;0.30;;;2.50;99.90;;;;;;5052399;28;20114;-57
2023/01/16 06:39:19;;;;;;;0.77;0.40;;;2.50;99.90;;;;;;5053954;28;20090;-56
2023/01/16 06:41:45;;;;;;;1.10;0.50;;;2.50;99.90;;;;;;5053808;28;20041;-53
2023/01/16 06:44:12;;;;;;;2.60;0.40;;;2.50;99.90;;;;;;5053765;28;20044;-54
2023/01/16 06:46:39;;;;;;;1.45;0.50;;;2.50;99.90;;;;;;5053281;28;20033;-57
2023/01/16 06:49:09;;;;;;;1.00;0.40;;;2.50;99.90;;;;;;5051947;28;20109;-56
2023/01/16 06:51:36;;;;;;;1.20;0.60;;;2.50;99.90;;;;;;5053451;28;20040;-56
2023/01/16 06:54:03;;;;;;;2.00;0.75;;;2.60;99.90;;;;;;5053282;28;20094;-55
2023/01/16 06:56:30;;;;;;;1.52;0.75;;;2.60;99.90;;;;;;5053575;28;20052;-59
2023/01/16 06:58:56;;;;;;;1.58;0.80;;;2.60;99.90;;;;;;5053676;28;20102;-55
2023/01/16 07:01:23;;;;;;;2.75;1.13;;;2.70;99.90;;;;;;5053111;28;20049;-56
2023/01/16 07:03:50;;;;;;;2.85;1.00;;;2.70;99.90;;;;;;5051945;28;20041;-58
2023/01/16 07:06:18;;;;;;;3.10;1.20;;;2.80;99.90;;;;;;5053412;28;20029;-56
2023/01/16 07:08:45;;;;;;;4.03;1.20;;;2.80;99.90;;;;;;5053518;28;20102;-59
2023/01/16 07:11:12;;;;;;;3.40;1.25;;;2.90;99.90;;;;;;5053402;28;20064;-57
2023/01/16 07:13:38;;;;;;;4.05;1.50;;;2.90;99.90;;;;;;5052020;28;20041;-54
2023/01/16 07:24:21;;;;;;;3.75;1.13;;;3.10;99.90;;;;;;5057568;28;20088;-57
2023/01/16 07:26:48;;;;;;;3.42;0.90;;;3.10;99.90;;;;;;5057592;28;20041;-54
2023/01/16 07:29:15;;;;;;;1.73;0.80;;;3.10;99.90;;;;;;5057185;28;20485;-59
2023/01/16 07:31:42;;;;;;;1.90;0.60;;;3.10;99.90;;;;;;5056106;28;20053;-56
2023/01/16 07:34:09;;;;;;;3.97;0.90;;;3.20;99.90;;;;;;5057489;28;20037;-56
2023/01/16 07:36:35;;;;;;;3.30;0.93;;;3.20;99.90;;;;;;5055702;28;20055;-57
2023/01/16 07:39:02;;;;;;;3.65;1.00;;;3.10;99.90;;;;;;5057253;28;20075;-55
2023/01/16 07:41:29;;;;;;;3.88;1.02;;;3.20;99.90;;;;;;5057067;28;20045;-59
2023/01/16 07:43:56;;;;;;;3.15;1.20;;;3.20;99.90;;;;;;5057285;28;20043;-56
2023/01/16 07:46:22;;;;;;;4.78;1.40;;;3.20;99.90;;;;;;5057054;28;20033;-58
2023/01/16 07:48:51;;;;;;;5.32;1.83;;;3.30;99.90;;;;;;5057352;28;20354;-56
2023/01/16 07:51:18;;;;;;;4.05;2.00;;;3.30;99.90;;;;;;5056777;28;20076;-58
2023/01/16 07:53:44;;;;;;;7.63;3.00;;;3.30;99.90;;;;;;5056850;28;20045;-56
2023/01/16 07:56:11;;;;;;;11.85;3.72;;;3.30;99.90;;;;;;5056924;28;20044;-56
2023/01/16 07:58:41;;;;;;;9.32;3.42;;;3.40;99.90;;;;;;5056818;28;20432;-54
2023/01/16 08:01:07;;;;;;;12.00;4.25;;;3.40;99.90;;;;;;5055225;28;20043;-55
2023/01/16 08:03:34;;;;;;;12.05;4.70;;;3.40;99.90;;;;;;5057273;28;20423;-57
2023/01/16 08:06:02;;;;;;;13.85;4.70;;;3.40;99.90;;;;;;5056365;28;20045;-55
2023/01/16 08:08:28;;;;;;;13.50;5.25;;;3.40;99.90;;;;;;5056379;28;20095;-58
2023/01/16 08:10:55;;;;;;;14.43;4.40;;;3.40;99.90;;;;;;5056605;28;20128;-56
2023/01/16 08:13:22;;;;;;;15.18;4.88;;;3.40;99.90;;;;;;5055315;28;20551;-57
2023/01/16 08:15:50;;;;;;;14.52;4.60;;;3.40;99.90;;;;;;5055434;28;20049;-57
2023/01/16 08:18:18;;;;;;;21.67;4.53;;;3.40;99.90;;;;;;5056517;28;20072;-57
2023/01/16 08:20:45;;;;;;;17.38;3.65;;;3.40;99.90;;;;;;5055328;28;20045;-50
2023/01/16 08:23:11;;;;;;;13.65;3.92;;;3.40;99.90;;;;;;5055004;28;20571;-57
2023/01/16 08:25:38;;;;;;;13.48;3.42;;;3.40;99.90;;;;;;5054204;28;20087;-58
2023/01/16 08:28:05;;;;;;;18.63;4.07;;;3.40;99.90;;;;;;5055971;28;20049;-57
2023/01/16 08:30:31;;;;;;;13.77;3.35;;;3.50;99.90;;;;;;5059357;28;20037;-58
2023/01/16 08:32:58;;;;;;;18.55;3.72;;;3.50;99.90;;;;;;5075396;28;20442;-52
2023/01/16 08:35:25;;;;;;;19.55;3.83;;;3.50;99.90;;;;;;5075002;28;20041;-58
2023/01/16 08:37:52;;;;;;;17.63;4.38;;;3.50;99.90;;;;;;5074848;28;20084;-59
2023/01/16 08:40:18;;;;;;;16.80;3.90;;;3.60;99.90;;;;;;5059572;28;20045;-59
2023/01/16 08:53:47;;;;;;;14.55;3.20;;;3.60;99.90;;;;;;5055587;28;20068;-55
2023/01/16 08:56:14;;;;;;;10.40;2.92;;;3.60;99.90;;;;;;5055341;28;20045;-56
2023/01/16 08:58:41;;;;;;;19.02;4.57;;;3.60;99.90;;;;;;5055211;28;20041;-59
2023/01/16 09:01:07;;;;;;;15.23;4.38;;;3.50;99.90;;;;;;5048571;28;20044;-53
2023/01/16 09:03:34;;;;;;;13.27;4.80;;;3.50;99.90;;;;;;5048590;28;20116;-54
2023/01/16 09:06:01;;;;;;;17.70;4.45;;;3.50;99.90;;;;;;5048463;28;20124;-57
2023/01/16 09:08:28;;;;;;;16.90;5.53;;;3.50;99.90;;;;;;5074253;28;20454;-54
2023/01/16 09:13:50;;;;;;;15.27;4.68;;;3.50;99.90;;;;;;5074462;28;20061;-53
2023/01/16 09:16:16;;;;;;;13.50;5.30;;;3.50;99.90;;;;;;5074138;28;20127;-55
2023/01/16 09:18:43;;;;;;;17.13;5.90;;;3.50;99.90;;;;;;5054465;28;20095;-55
2023/01/16 09:21:10;;;;;;;17.88;5.88;;;3.50;99.90;;;;;;5054397;28;20040;-56
2023/01/16 09:23:37;;;;;;;20.77;7.20;;;3.50;99.90;;;;;;5054448;28;20041;-56
2023/01/16 09:26:03;;;;;;;18.40;6.00;;;3.50;99.90;;;;;;5057341;28;20079;-47
2023/01/16 09:28:30;;;;;;;14.48;6.43;;;3.50;99.90;;;;;;5054897;28;20416;-52
2023/01/16 09:30:57;;;;;;;16.58;6.22;;;3.50;99.90;;;;;;5054585;28;20044;-57
2023/01/16 09:33:25;;;;;;;15.35;6.38;;;3.50;99.90;;;;;;5054237;28;20164;-51
2023/01/16 09:35:52;;;;;;;16.67;6.88;;;3.50;99.90;;;;;;5054506;28;20052;-52
2023/01/16 09:38:20;;;;;;;13.43;6.55;;;3.40;99.90;;;;;;5054632;28;20094;-55
2023/01/16 09:40:49;;;;;;;14.25;5.97;;;3.40;99.90;;;;;;5044344;28;20720;-56
2023/01/16 09:46:01;;;;;;;14.07;5.43;;;3.50;99.90;;;;;;5054704;28;20099;-55
2023/01/16 09:48:28;;;;;;;11.98;5.38;;;3.50;99.90;;;;;;5054506;28;20064;-51
2023/01/16 09:50:56;;;;;;;11.52;4.78;;;3.50;99.90;;;;;;5054229;28;20043;-54
2023/01/16 09:58:54;;;;;;;11.35;4.68;;;3.50;99.90;;;;;;5054243;28;20041;-56
2023/01/16 10:01:20;;;;;;;13.25;5.47;;;3.60;99.90;;;;;;5054523;28;20123;-54
2023/01/16 10:03:47;;;;;;;10.52;5.28;;;3.60;99.90;;;;;;5054573;28;20052;-56
2023/01/16 10:06:15;;;;;;;13.27;5.70;;;3.60;99.90;;;;;;5054547;28;20044;-56
2023/01/16 10:08:42;;;;;;;10.60;5.95;;;3.60;99.90;;;;;;5069521;28;20086;-55
2023/01/16 10:11:08;;;;;;;9.75;5.88;;;3.60;99.90;;;;;;5073041;28;20044;-53
2023/01/16 10:13:35;;;;;;;10.65;5.68;;;3.60;99.90;;;;;;5073528;28;20488;-57
2023/01/16 10:16:03;;;;;;;11.23;6.68;;;3.70;99.90;;;;;;5066705;28;20049;-58
2023/01/16 10:18:30;;;;;;;11.25;6.22;;;3.70;99.90;;;;;;5054939;28;20400;-57
2023/01/16 10:20:58;;;;;;;10.15;5.78;;;3.70;99.90;;;;;;5056041;28;20037;-56
2023/01/16 10:23:26;;;;;;;12.20;6.22;;;3.70;99.90;;;;;;5053773;28;20060;-55
2023/01/16 10:25:53;;;;;;;10.63;6.35;;;3.80;99.90;;;;;;5060508;28;20119;-56
2023/01/16 10:28:21;;;;;;;9.25;5.85;;;3.80;99.90;;;;;;5045554;28;20059;-54
2023/01/16 10:30:47;;;;;;;15.65;6.70;;;3.90;99.90;;;;;;5069714;28;20408;-57
2023/01/16 10:33:14;;;;;;;11.55;5.95;;;3.90;99.90;;;;;;5053079;28;20036;-56
2023/01/16 10:35:42;;;;;;;10.10;6.13;;;3.90;99.90;;;;;;5052599;28;20372;-56
2023/01/16 10:38:09;;;;;;;12.85;6.40;;;3.90;99.90;;;;;;5053674;28;20144;-51
2023/01/16 10:40:35;;;;;;;12.65;5.82;;;3.90;99.90;;;;;;5053487;28;20104;-52
2023/01/16 10:51:20;;;;;;;12.13;6.70;;;4.00;99.90;;;;;;5053713;28;20048;-53
2023/01/16 10:53:47;;;;;;;13.90;7.30;;;4.00;99.90;;;;;;5053255;28;20049;-52
2023/01/16 10:56:13;;;;;;;10.20;6.32;;;4.00;99.90;;;;;;5053207;28;20044;-54
2023/01/16 10:58:41;;;;;;;9.77;5.75;;;4.00;99.90;;;;;;5051665;28;20496;-54
2023/01/16 11:01:08;;;;;;;10.02;6.18;;;4.00;99.90;;;;;;5053419;28;20133;-48
2023/01/16 11:03:34;;;;;;;15.50;7.30;;;4.10;99.90;;;;;;5043620;28;20040;-53
2023/01/16 11:06:01;;;;;;;11.32;6.10;;;4.10;99.90;;;;;;5053134;28;20435;-50
2023/01/16 11:08:28;;;;;;;7.45;4.85;;;4.10;99.90;;;;;;5051693;28;20489;-55
2023/01/16 11:10:55;;;;;;;8.38;5.53;;;4.10;99.90;;;;;;5056651;28;20127;-55
2023/01/16 11:18:28;;;;;;;11.32;6.63;;;4.10;99.90;;;;;;5053060;28;20515;-55
2023/01/16 11:18:54;;;;;;;11.52;6.45;;;4.10;99.90;;;;;;5068137;28;20106;-55
2023/01/16 11:21:21;;;;;;;8.20;6.13;;;4.10;99.90;;;;;;5072151;28;20127;-55
2023/01/16 11:23:48;;;;;;;10.77;6.60;;;4.20;99.90;;;;;;5072332;28;20048;-51
2023/01/16 11:26:14;;;;;;;8.68;6.32;;;4.20;99.90;;;;;;5072292;28;20044;-53
2023/01/16 11:28:41;;;;;;;10.15;6.85;;;4.20;99.90;;;;;;5051923;28;20049;-52
2023/01/16 11:31:08;;;;;;;13.15;7.32;;;4.20;99.90;;;;;;5070842;28;20090;-52
2023/01/16 11:33:35;;;;;;;10.63;7.25;;;4.20;99.90;;;;;;5052785;28;20041;-56
2023/01/16 11:36:02;;;;;;;11.85;7.05;;;4.20;99.90;;;;;;5054144;28;20045;-49
2023/01/16 11:38:28;;;;;;;12.60;7.88;;;4.20;99.90;;;;;;5058669;28;20045;-56
2023/01/16 11:40:55;;;;;;;13.85;8.05;;;4.30;99.90;;;;;;5056629;28;20136;-51
2023/01/16 11:46:11;;;;;;;10.67;8.27;;;4.30;99.90;;;;;;5050011;28;20048;-54
2023/01/16 11:48:38;;;;;;;11.85;7.18;;;4.30;99.90;;;;;;5052604;28;20373;-56
2023/01/16 11:51:05;;;;;;;12.13;8.20;;;4.30;99.90;;;;;;5050230;28;20124;-57
2023/01/16 11:53:32;;;;;;;13.63;8.43;;;4.30;99.90;;;;;;5052720;28;20045;-56
2023/01/16 11:55:58;;;;;;;14.65;8.57;;;4.30;99.90;;;;;;5054473;28;20041;-58
2023/01/16 11:58:25;;;;;;;11.35;8.15;;;4.40;99.90;;;;;;5052700;28;20488;-57
2023/01/16 12:00:52;;;;;;;15.38;8.45;;;4.40;99.90;;;;;;5052551;28;20041;-55
2023/01/16 12:03:19;;;;;;;15.10;7.53;;;4.40;99.90;;;;;;5056634;28;20041;-51
2023/01/16 12:05:56;;;;;;;11.55;8.18;;;4.50;99.90;;;;;;5072902;28;20121;-54
2023/01/16 12:08:22;;;;;;;11.75;7.80;;;4.50;99.90;;;;;;5075853;28;20040;-57
2023/01/16 12:10:49;;;;;;;12.07;7.95;;;4.50;99.90;;;;;;5073937;28;20414;-53
2023/01/16 12:16:01;;;;;;;12.50;8.03;;;4.50;99.90;;;;;;5075460;28;20377;-51
2023/01/16 12:18:28;;;;;;;14.60;7.78;;;4.50;99.90;;;;;;5075375;28;20480;-51
2023/01/16 12:20:55;;;;;;;14.27;8.23;;;4.60;99.90;;;;;;5061189;28;20369;-52
2023/01/16 12:23:21;;;;;;;19.27;9.98;;;4.60;99.90;;;;;;5055194;28;20120;-52
2023/01/16 12:25:50;;;;;;;17.58;9.32;;;4.50;99.90;;;;;;5055667;28;20472;-53
2023/01/16 12:28:16;;;;;;;14.35;8.43;;;4.60;99.90;;;;;;5054832;28;20049;-54
2023/01/16 12:30:47;;;;;;;17.48;9.05;;;4.50;99.90;;;;;;5054737;28;20068;-56
2023/01/16 12:33:21;;;;;;;13.82;8.07;;;4.60;99.90;;;;;;5055528;28;20055;-53
2023/01/16 12:35:48;;;;;;;14.45;8.07;;;4.60;99.90;;;;;;5056287;28;20045;-57
2023/01/16 12:38:16;;;;;;;12.32;7.18;;;4.60;99.90;;;;;;5071159;28;20075;-56
2023/01/16 12:40:43;;;;;;;15.05;7.82;;;4.70;99.90;;;;;;5074082;28;20127;-55
2023/01/16 12:43:23;;;;;;;13.20;8.18;;;4.80;99.90;;;;;;5067266;28;20498;-54
2023/01/16 12:45:50;;;;;;;16.88;8.88;;;4.80;99.90;;;;;;5075019;28;20043;-51
2023/01/16 12:48:17;;;;;;;13.70;8.40;;;4.90;99.90;;;;;;5058376;28;20068;-54
2023/01/16 12:50:43;;;;;;;12.73;8.05;;;4.90;99.90;;;;;;5056453;28;20106;-57
2023/01/16 12:53:10;;;;;;;13.32;8.48;;;4.90;99.90;;;;;;5053721;28;20111;-55
2023/01/16 12:55:37;;;;;;;13.15;8.00;;;5.00;99.90;;;;;;5055565;28;20079;-54
2023/01/16 12:58:15;;;;;;;14.52;8.40;;;5.00;99.90;;;;;;5052856;28;20076;-53
2023/01/16 13:00:42;;;;;;;12.50;8.10;;;5.00;99.90;;;;;;5051353;28;20037;-53
2023/01/16 13:03:09;;;;;;;15.10;7.88;;;5.10;99.90;;;;;;5053780;28;20048;-53
2023/01/16 13:05:36;;;;;;;9.77;6.25;;;5.10;99.90;;;;;;5055380;28;20127;-57
2023/01/16 13:08:05;;;;;;;11.82;6.80;;;5.10;99.90;;;;;;5053837;28;20041;-57
2023/01/16 13:13:21;;;;;;;13.18;6.75;;;5.20;99.90;;;;;;5055086;28;20048;-53
2023/01/16 13:15:50;;;;;;;13.65;5.20;;;5.20;99.90;;;;;;5048708;28;20061;-56
2023/01/16 13:18:17;;;;;;;11.88;4.88;;;5.10;99.90;;;;;;5047279;28;20041;-53
2023/01/16 13:20:44;;;;;;;11.13;4.70;;;5.10;99.90;;;;;;5066537;28;20045;-54
2023/01/16 13:23:11;;;;;;;11.30;4.40;;;5.10;99.90;;;;;;5045989;28;20045;-57
2023/01/16 13:25:38;;;;;;;11.50;4.20;;;5.20;99.90;;;;;;5056716;28;20113;-50
2023/01/16 13:28:04;;;;;;;11.65;4.82;;;5.20;99.90;;;;;;5055304;28;20076;-55
2023/01/16 13:30:31;;;;;;;11.13;4.28;;;5.20;99.90;;;;;;5054368;28;20120;-54
2023/01/16 13:32:58;;;;;;;11.50;4.60;;;5.20;99.90;;;;;;5054251;28;20045;-57
2023/01/16 13:35:24;;;;;;;13.07;4.00;;;5.20;99.90;;;;;;5055125;28;20559;-55
2023/01/16 13:37:52;;;;;;;7.35;3.95;;;5.30;99.90;;;;;;5053877;28;20049;-57
2023/01/16 13:40:20;;;;;;;9.88;4.00;;;5.30;99.90;;;;;;5054426;28;20135;-52
2023/01/16 13:42:50;;;;;;;8.98;4.35;;;5.30;99.90;;;;;;5053607;28;20440;-52
2023/01/16 13:48:03;;;;;;;;;;;5.20;99.90;;;;;;5054303;28;20076;-53